Air Navigation Services of Czech Republic
Airport: LKCV Updated:  25.05.2018 02:01:06  UTC
 METAR LKCV 25.05. 02:00 ...
METAR LKCV 250200Z 02003KT CAVOK 15/13 Q1019 NOSIG RMK BLU BLU=
 TAF LKCV 24.05. 23:00 ...
TAF LKCV 242300Z 2500/2600 04005KT CAVOK      TEMPO 2502/2506 VRB02KT BKN035      PROB30 TEMPO 2511/2516 09014KT SHRA BKN040TCU=